createdAt,value
2023-04-11T00:01:10.585Z,53.20
2023-04-11T00:06:13.121Z,45.50
2023-04-11T00:11:15.530Z,52.70
2023-04-11T00:16:19.574Z,50.00
2023-04-11T00:21:21.585Z,53.70
2023-04-11T00:26:23.480Z,45.10
2023-04-11T00:31:26.257Z,49.00
2023-04-11T00:36:28.252Z,48.10
2023-04-11T00:41:30.399Z,66.50
2023-04-11T00:46:33.782Z,60.80
2023-04-11T00:51:35.896Z,53.30
2023-04-11T00:56:37.950Z,54.40
2023-04-11T01:01:41.734Z,54.90
2023-04-11T01:06:47.727Z,50.30
2023-04-11T01:11:51.684Z,53.40
2023-04-11T01:16:56.540Z,46.80
2023-04-11T01:22:01.792Z,46.30
2023-04-11T01:27:04.174Z,48.50
2023-04-11T01:32:06.506Z,45.80
2023-04-11T01:37:09.222Z,46.20
2023-04-11T01:42:12.752Z,44.90
2023-04-11T01:47:14.918Z,45.50
2023-04-11T01:52:17.505Z,41.50
2023-04-11T01:57:19.291Z,40.30
2023-04-11T02:02:22.420Z,47.30
2023-04-11T02:07:24.802Z,38.70
2023-04-11T02:12:27.568Z,33.30
2023-04-11T02:17:31.116Z,42.30
2023-04-11T02:22:33.322Z,43.30
2023-04-11T02:27:35.728Z,44.10
2023-04-11T02:32:38.411Z,45.90
2023-04-11T02:37:40.388Z,44.50
2023-04-11T02:42:43.371Z,48.10
2023-04-11T02:47:46.060Z,46.50
2023-04-11T02:52:50.864Z,41.20
2023-04-11T02:57:55.670Z,45.10
2023-04-11T03:02:59.207Z,45.60
2023-04-11T03:08:03.137Z,43.30
2023-04-11T03:13:07.015Z,46.00
2023-04-11T03:18:08.930Z,39.00
2023-04-11T03:23:13.178Z,38.80
2023-04-11T03:28:15.543Z,40.60
2023-04-11T03:33:18.728Z,41.20
2023-04-11T03:38:21.341Z,35.00
2023-04-11T03:43:23.544Z,36.80
2023-04-11T03:48:26.630Z,34.30
2023-04-11T03:53:33.882Z,33.00
2023-04-11T03:58:40.391Z,28.80
2023-04-11T04:03:44.154Z,32.50
2023-04-11T04:08:48.429Z,29.50
2023-04-11T04:13:51.443Z,27.50
2023-04-11T04:18:54.565Z,30.50
2023-04-11T04:23:58.095Z,28.50
2023-04-11T04:29:10.126Z,29.40
2023-04-11T04:34:31.318Z,26.90
2023-04-11T04:39:34.392Z,27.00
2023-04-11T04:44:37.707Z,24.50
2023-04-11T04:49:46.450Z,27.20
2023-04-11T04:54:48.507Z,25.70
2023-04-11T04:59:50.468Z,28.50
2023-04-11T05:04:54.577Z,31.00
2023-04-11T05:09:57.656Z,32.00
2023-04-11T05:15:00.620Z,31.00
2023-04-11T05:20:06.359Z,34.80
2023-04-11T05:25:11.673Z,37.10
2023-04-11T05:30:14.679Z,34.20
2023-04-11T05:35:17.360Z,36.00
2023-04-11T05:40:25.584Z,36.70
2023-04-11T05:45:27.631Z,36.60
2023-04-11T05:50:29.601Z,37.30
2023-04-11T05:55:32.080Z,35.20
2023-04-11T06:00:34.612Z,38.20
2023-04-11T06:05:37.802Z,34.20
2023-04-11T06:10:40.258Z,34.00
2023-04-11T06:15:42.315Z,40.80
2023-04-11T06:20:46.273Z,35.20
2023-04-11T06:25:48.385Z,35.80
2023-04-11T06:30:50.317Z,34.40
2023-04-11T06:35:52.442Z,33.40
2023-04-11T06:40:56.332Z,33.60
2023-04-11T06:45:58.553Z,33.20
2023-04-11T06:51:00.329Z,31.40
2023-04-11T06:56:02.362Z,25.90
2023-04-11T07:01:04.235Z,22.40
2023-04-11T07:06:07.581Z,18.60
2023-04-11T07:11:09.922Z,15.20
2023-04-11T07:16:12.061Z,14.70
2023-04-11T07:21:15.242Z,13.40
2023-04-11T07:26:18.033Z,13.30
2023-04-11T07:31:21.614Z,12.30
2023-04-11T07:36:23.879Z,12.60
2023-04-11T07:41:25.666Z,12.40
2023-04-11T07:46:27.654Z,9.90
2023-04-11T07:51:29.461Z,9.70
2023-04-11T07:56:31.359Z,10.10
2023-04-11T08:01:33.207Z,11.40
2023-04-11T08:06:35.721Z,10.20
2023-04-11T08:11:39.349Z,10.40
2023-04-11T08:16:41.537Z,10.70
2023-04-11T08:21:43.376Z,11.70
2023-04-11T08:26:45.952Z,12.30
2023-04-11T08:31:47.731Z,12.00
2023-04-11T08:36:49.701Z,11.70
2023-04-11T08:41:51.692Z,12.30
2023-04-11T08:46:53.728Z,10.70
2023-04-11T08:51:56.215Z,9.80
2023-04-11T08:56:58.286Z,8.60
2023-04-11T09:02:09.526Z,8.90
2023-04-11T09:07:12.152Z,9.00
2023-04-11T09:12:14.447Z,9.40
2023-04-11T09:17:17.758Z,9.10
2023-04-11T09:22:19.570Z,8.90
2023-04-11T09:27:24.554Z,7.80
2023-04-11T09:32:34.711Z,7.50
2023-04-11T09:37:45.491Z,7.20
2023-04-11T09:42:48.796Z,8.00
2023-04-11T09:47:53.555Z,7.70
2023-04-11T09:52:58.869Z,7.20
2023-04-11T09:58:01.523Z,7.90
2023-04-11T10:03:03.594Z,7.70
2023-04-11T10:08:22.936Z,8.20
2023-04-11T10:13:45.136Z,8.30
2023-04-11T10:18:53.293Z,8.90
2023-04-11T10:24:17.168Z,7.90
2023-04-11T10:29:30.170Z,6.60
2023-04-11T10:34:32.396Z,7.00
2023-04-11T10:40:04.865Z,6.60
2023-04-11T10:45:29.282Z,6.40
2023-04-11T10:50:31.619Z,6.70
2023-04-11T10:55:48.429Z,6.30
2023-04-11T11:00:53.794Z,6.60
2023-04-11T11:05:59.885Z,5.90
2023-04-11T11:11:08.130Z,5.90
2023-04-11T11:16:14.699Z,6.00
2023-04-11T11:21:26.714Z,6.10
2023-04-11T11:26:36.983Z,5.70
2023-04-11T11:31:45.934Z,6.00
2023-04-11T11:36:48.081Z,6.70
2023-04-11T11:41:51.569Z,6.90
2023-04-11T11:47:17.420Z,8.90
2023-04-11T11:52:34.994Z,9.10
2023-04-11T11:57:37.577Z,10.10
2023-04-11T12:02:40.963Z,10.40
2023-04-11T12:07:42.876Z,7.00
2023-04-11T12:12:53.357Z,7.50
2023-04-11T12:17:56.195Z,6.60
2023-04-11T12:22:58.676Z,7.80
2023-04-11T12:28:00.493Z,6.50
2023-04-11T12:33:02.696Z,6.90
2023-04-11T12:38:04.600Z,6.50
2023-04-11T12:43:06.581Z,7.20
2023-04-11T12:48:08.520Z,6.80
2023-04-11T12:53:10.705Z,7.00
2023-04-11T12:58:12.453Z,7.50
2023-04-11T13:03:14.598Z,7.10
2023-04-11T13:08:16.869Z,7.50
2023-04-11T13:13:19.095Z,7.10
2023-04-11T13:18:21.089Z,8.10
2023-04-11T13:23:23.541Z,8.40
2023-04-11T13:28:25.475Z,8.20
2023-04-11T13:33:27.617Z,8.40
2023-04-11T13:38:29.482Z,8.80
2023-04-11T13:43:31.891Z,8.30
2023-04-11T13:48:35.647Z,8.60
2023-04-11T13:53:37.614Z,8.00
2023-04-11T13:58:39.504Z,8.80
2023-04-11T14:03:43.001Z,6.70
2023-04-11T14:08:45.407Z,8.30
2023-04-11T14:13:47.581Z,10.00
2023-04-11T14:18:49.458Z,9.70
2023-04-11T14:23:51.924Z,10.00
2023-04-11T14:28:53.849Z,11.20
2023-04-11T14:33:56.195Z,10.20
2023-04-11T14:38:58.084Z,11.70
2023-04-11T14:44:00.611Z,11.40
2023-04-11T14:49:02.707Z,11.00
2023-04-11T14:54:04.799Z,11.30
2023-04-11T14:59:07.747Z,11.40
2023-04-11T15:04:09.936Z,12.00
2023-04-11T15:09:13.090Z,12.80
2023-04-11T15:14:15.870Z,12.00
2023-04-11T15:19:17.883Z,11.70
2023-04-11T15:24:20.027Z,12.70
2023-04-11T15:29:21.976Z,14.70
2023-04-11T15:34:24.854Z,14.00
2023-04-11T15:39:27.253Z,16.10
2023-04-11T15:44:29.740Z,14.50
2023-04-11T15:49:31.811Z,15.80
2023-04-11T15:54:33.923Z,15.60
2023-04-11T15:59:37.977Z,16.90
2023-04-11T16:04:44.000Z,14.20
2023-04-11T16:09:47.257Z,11.80
2023-04-11T16:14:49.309Z,11.00
2023-04-11T16:19:52.639Z,14.00
2023-04-11T16:24:56.368Z,13.10
2023-04-11T16:30:01.272Z,14.10
2023-04-11T16:35:03.531Z,13.10
2023-04-11T16:40:11.262Z,8.60
2023-04-11T16:45:14.296Z,5.60
2023-04-11T16:50:17.639Z,6.20
2023-04-11T16:55:20.090Z,7.10
2023-04-11T17:00:22.146Z,7.10
2023-04-11T17:05:24.121Z,9.90
2023-04-11T17:10:26.446Z,8.60
2023-04-11T17:15:28.857Z,4.80
2023-04-11T17:20:31.205Z,2.90
2023-04-11T17:25:34.307Z,3.60
2023-04-11T17:30:36.556Z,3.30
2023-04-11T17:35:38.937Z,3.60
2023-04-11T17:40:41.420Z,3.90
2023-04-11T17:45:43.921Z,21.90
2023-04-11T17:50:46.362Z,3.20
2023-04-11T17:55:48.679Z,3.10
2023-04-11T18:00:56.680Z,4.40
2023-04-11T18:06:00.094Z,5.30
2023-04-11T18:11:03.558Z,6.60
2023-04-11T18:16:06.255Z,6.60
2023-04-11T18:21:08.358Z,9.40
2023-04-11T18:26:10.941Z,11.30
2023-04-11T18:31:12.876Z,10.90
2023-04-11T18:36:16.970Z,11.70
2023-04-11T18:41:20.220Z,8.90
2023-04-11T18:46:22.716Z,8.20
2023-04-11T18:51:26.434Z,8.30
2023-04-11T18:56:28.639Z,9.60
2023-04-11T19:01:31.687Z,12.30
2023-04-11T19:06:35.419Z,13.00
2023-04-11T19:11:41.430Z,12.50
2023-04-11T19:16:44.265Z,12.10
2023-04-11T19:21:47.197Z,15.20
2023-04-11T19:26:50.975Z,14.40
2023-04-11T19:31:52.805Z,13.80
2023-04-11T19:36:55.647Z,15.10
2023-04-11T19:41:57.593Z,17.90
2023-04-11T19:46:59.702Z,16.40
2023-04-11T19:52:01.561Z,16.40
2023-04-11T19:57:03.912Z,14.00
2023-04-11T20:02:06.088Z,12.90
2023-04-11T20:07:08.215Z,12.00
2023-04-11T20:12:11.130Z,12.20
2023-04-11T20:17:15.583Z,14.50
2023-04-11T20:22:19.146Z,13.10
2023-04-11T20:27:21.438Z,12.50
2023-04-11T20:32:23.287Z,11.40
2023-04-11T20:37:25.782Z,11.70
2023-04-11T20:42:30.938Z,11.40
2023-04-11T20:47:37.714Z,11.90
2023-04-11T20:52:45.832Z,10.30
2023-04-11T20:57:47.944Z,10.60
2023-04-11T21:02:50.560Z,9.30
2023-04-11T21:07:54.486Z,8.60
2023-04-11T21:13:02.394Z,7.60
2023-04-11T21:18:07.283Z,6.60
2023-04-11T21:23:09.606Z,7.70
2023-04-11T21:28:11.974Z,7.30
2023-04-11T21:33:13.838Z,7.50
2023-04-11T21:38:15.982Z,7.70
2023-04-11T21:43:18.502Z,8.80
2023-04-11T21:48:20.940Z,8.20
2023-04-11T21:53:24.456Z,8.00
2023-04-11T21:58:29.916Z,8.40
2023-04-11T22:03:32.756Z,8.50
2023-04-11T22:08:39.097Z,8.90
2023-04-11T22:13:46.221Z,9.40
2023-04-11T22:18:49.098Z,9.00
2023-04-11T22:23:54.837Z,10.00
2023-04-11T22:28:58.372Z,9.20
2023-04-11T22:34:01.953Z,8.70
2023-04-11T22:39:04.978Z,8.30
2023-04-11T22:44:06.959Z,8.30
2023-04-11T22:49:12.547Z,8.20
2023-04-11T22:54:15.666Z,8.20
2023-04-11T22:59:17.764Z,7.70
2023-04-11T23:04:20.881Z,7.60
2023-04-11T23:09:23.846Z,7.00
2023-04-11T23:14:33.560Z,6.20
2023-04-11T23:19:35.542Z,5.80
2023-04-11T23:24:37.673Z,5.70
2023-04-11T23:29:39.769Z,5.50
2023-04-11T23:34:42.148Z,5.40
2023-04-11T23:44:55.646Z,5.00
2023-04-11T23:50:03.033Z,6.10
2023-04-11T23:55:05.495Z,4.60
